Time;durP1;ratioP1;P1;durP2;ratioP2;P2;SDS_P1;SDS_P2;PMS_P1;PMS_P2;Temp;Humidity;BMP_temperature;BMP_pressure;BME280_temperature;BME280_humidity;BME280_pressure;Samples;Min_cycle;Max_cycle;Signal;HPM_P1;HPM_P2
2023/07/11 00:00:50;;;;;;;4.30;2.67;;;19.00;98.60;;;;;;5003337;28;20176;-57
2023/07/11 00:03:16;;;;;;;6.38;2.80;;;18.90;98.60;;;;;;5027266;28;20049;-58
2023/07/11 00:05:42;;;;;;;4.72;2.13;;;18.90;98.70;;;;;;5019090;28;20404;-55
2023/07/11 00:08:08;;;;;;;5.82;2.55;;;18.80;98.80;;;;;;5021848;28;20041;-54
2023/07/11 00:10:34;;;;;;;4.82;2.20;;;18.80;98.90;;;;;;5023735;28;20559;-59
2023/07/11 00:13:00;;;;;;;5.35;2.50;;;18.70;98.90;;;;;;5008032;28;20087;-59
2023/07/11 00:15:26;;;;;;;5.00;2.60;;;18.70;99.00;;;;;;5025759;28;20132;-60
2023/07/11 00:17:52;;;;;;;5.88;2.45;;;18.70;99.10;;;;;;5002492;28;20175;-56
2023/07/11 00:20:19;;;;;;;5.90;2.65;;;18.70;99.20;;;;;;5018927;28;20132;-60
2023/07/11 00:22:45;;;;;;;6.57;2.53;;;18.60;99.30;;;;;;5012768;28;20042;-59
2023/07/11 00:25:12;;;;;;;7.32;2.92;;;18.60;99.40;;;;;;5013167;28;20087;-60
2023/07/11 00:27:38;;;;;;;6.25;2.50;;;18.60;99.40;;;;;;5022666;28;20049;-54
2023/07/11 00:30:05;;;;;;;3.88;2.35;;;18.60;99.40;;;;;;5027446;28;20038;-57
2023/07/11 00:32:31;;;;;;;4.78;2.63;;;18.50;99.60;;;;;;5025119;28;20511;-57
2023/07/11 00:34:56;;;;;;;5.53;2.33;;;18.50;99.70;;;;;;5020066;28;20050;-59
2023/07/11 00:37:22;;;;;;;4.32;2.17;;;18.50;99.80;;;;;;5010179;28;20048;-58
2023/07/11 00:39:48;;;;;;;7.20;2.65;;;18.50;99.80;;;;;;5022266;28;20092;-61
2023/07/11 00:42:14;;;;;;;5.38;2.85;;;18.50;99.90;;;;;;5019755;28;20037;-56
2023/07/11 00:44:54;;;;;;;7.43;3.20;;;18.50;99.90;;;;;;5017180;28;20041;-56
2023/07/11 00:47:23;;;;;;;4.85;2.90;;;18.50;99.90;;;;;;5016417;28;20046;-56
2023/07/11 00:49:51;;;;;;;7.70;3.13;;;18.40;99.90;;;;;;5021823;28;20038;-58
2023/07/11 00:52:18;;;;;;;6.47;2.70;;;18.50;99.90;;;;;;5022658;28;20052;-58
2023/07/11 00:54:49;;;;;;;6.03;3.00;;;18.50;99.90;;;;;;5023071;28;20046;-60
2023/07/11 00:57:16;;;;;;;5.97;2.90;;;18.50;99.90;;;;;;5000812;28;20041;-61
2023/07/11 00:59:43;;;;;;;5.18;2.55;;;18.50;99.90;;;;;;4998089;28;20105;-58
2023/07/11 01:02:19;;;;;;;5.60;3.08;;;18.50;99.90;;;;;;5017893;28;20045;-60
2023/07/11 01:04:45;;;;;;;7.28;3.03;;;18.50;99.90;;;;;;5027603;28;20567;-59
2023/07/11 01:07:15;;;;;;;4.75;2.60;;;18.50;99.90;;;;;;5023736;28;20128;-60
2023/07/11 01:09:41;;;;;;;4.93;2.38;;;18.50;99.90;;;;;;5021968;28;20397;-60
2023/07/11 01:12:12;;;;;;;5.78;2.65;;;18.60;99.90;;;;;;5009098;28;20048;-59
2023/07/11 01:14:42;;;;;;;4.10;2.47;;;18.50;99.90;;;;;;5021060;28;20053;-59
2023/07/11 01:17:21;;;;;;;6.05;2.58;;;18.50;99.90;;;;;;5020624;28;20051;-58
2023/07/11 01:19:47;;;;;;;6.07;2.13;;;18.50;99.90;;;;;;5007040;28;20179;-58
2023/07/11 01:22:12;;;;;;;3.83;2.03;;;18.40;99.90;;;;;;5014489;28;20124;-58
2023/07/11 01:24:38;;;;;;;5.18;1.80;;;18.30;99.90;;;;;;5006067;28;20044;-59
2023/07/11 01:27:04;;;;;;;5.13;2.35;;;18.30;99.90;;;;;;5013978;28;20041;-59
2023/07/11 01:29:30;;;;;;;5.22;2.25;;;18.30;99.90;;;;;;5005367;28;20048;-59
2023/07/11 01:31:55;;;;;;;3.60;2.00;;;18.30;99.90;;;;;;5018717;28;20049;-60
2023/07/11 01:34:21;;;;;;;4.45;2.10;;;18.40;99.90;;;;;;5005763;28;20049;-58
2023/07/11 01:36:47;;;;;;;3.33;1.88;;;18.40;99.90;;;;;;5024454;28;20299;-60
2023/07/11 01:39:12;;;;;;;4.50;2.20;;;18.30;99.90;;;;;;5025409;28;20403;-59
2023/07/11 01:41:38;;;;;;;4.50;2.20;;;18.30;99.90;;;;;;5022223;28;20038;-58
2023/07/11 01:44:04;;;;;;;4.07;2.35;;;18.30;99.90;;;;;;5013789;28;20041;-60
2023/07/11 01:46:30;;;;;;;4.63;2.20;;;18.30;99.90;;;;;;4997699;28;20504;-60
2023/07/11 01:48:55;;;;;;;6.15;2.25;;;18.30;99.90;;;;;;5022907;28;20046;-60
2023/07/11 01:51:21;;;;;;;4.95;2.17;;;18.20;99.90;;;;;;5014193;28;20046;-59
2023/07/11 01:53:47;;;;;;;6.45;1.90;;;18.20;99.90;;;;;;5021507;28;20048;-60
2023/07/11 01:56:12;;;;;;;7.00;2.45;;;18.20;99.90;;;;;;5002880;28;20041;-59
2023/07/11 01:58:38;;;;;;;5.38;2.10;;;18.20;99.90;;;;;;5006841;28;20044;-59
2023/07/11 02:01:04;;;;;;;5.20;2.30;;;18.30;99.90;;;;;;5017132;28;20485;-60
2023/07/11 02:03:30;;;;;;;5.25;2.10;;;18.20;99.90;;;;;;5021542;28;20384;-59
2023/07/11 02:05:55;;;;;;;5.15;2.35;;;18.20;99.90;;;;;;5021992;28;20473;-60
2023/07/11 02:08:21;;;;;;;5.15;2.30;;;18.20;99.90;;;;;;5021650;28;20400;-59
2023/07/11 02:18:51;;;;;;;5.28;2.00;;;18.10;99.90;;;;;;5036852;28;20143;-59
2023/07/11 02:21:17;;;;;;;4.03;1.80;;;18.10;99.90;;;;;;5017591;28;20512;-60
2023/07/11 02:23:42;;;;;;;3.10;1.73;;;18.10;99.90;;;;;;5019643;28;20084;-60
2023/07/11 02:26:08;;;;;;;5.75;1.77;;;18.10;99.90;;;;;;5025577;28;20455;-60
2023/07/11 02:28:34;;;;;;;3.03;1.77;;;18.10;99.90;;;;;;5027713;28;20037;-59
2023/07/11 02:30:59;;;;;;;4.18;2.15;;;18.10;99.90;;;;;;5022435;28;20041;-59
2023/07/11 02:33:25;;;;;;;3.05;2.20;;;18.10;99.90;;;;;;5027798;28;20046;-59
2023/07/11 02:35:51;;;;;;;6.07;2.17;;;18.10;99.90;;;;;;5011585;28;20117;-60
2023/07/11 02:38:16;;;;;;;5.68;1.85;;;18.10;99.90;;;;;;5009772;28;20042;-59
2023/07/11 02:40:42;;;;;;;3.50;1.65;;;18.10;99.90;;;;;;5026849;28;20049;-60
2023/07/11 02:43:08;;;;;;;3.15;1.60;;;18.10;99.90;;;;;;5028713;28;20061;-60
2023/07/11 02:45:34;;;;;;;4.47;2.05;;;18.10;99.90;;;;;;5032382;28;20045;-59
2023/07/11 02:47:59;;;;;;;4.93;2.00;;;18.10;99.90;;;;;;5009913;28;20037;-60
2023/07/11 02:50:25;;;;;;;4.85;2.08;;;18.10;99.90;;;;;;5027868;28;20048;-60
2023/07/11 02:52:50;;;;;;;7.45;2.40;;;18.10;99.90;;;;;;5019914;28;20049;-57
2023/07/11 02:55:16;;;;;;;5.75;2.08;;;18.20;99.90;;;;;;5022022;28;20419;-57
2023/07/11 02:57:45;;;;;;;6.78;2.53;;;18.10;99.90;;;;;;5027103;28;20057;-57
2023/07/11 03:00:11;;;;;;;5.32;2.60;;;18.10;99.90;;;;;;5028042;28;20095;-57
2023/07/11 03:02:37;;;;;;;7.00;2.67;;;18.10;99.90;;;;;;5026146;28;20073;-56
2023/07/11 03:05:04;;;;;;;7.32;2.15;;;18.20;99.90;;;;;;5019229;28;20505;-56
2023/07/11 03:07:29;;;;;;;6.10;2.28;;;18.10;99.90;;;;;;5013623;28;20420;-56
2023/07/11 03:09:55;;;;;;;6.65;2.20;;;18.10;99.90;;;;;;4999278;28;20046;-56
2023/07/11 03:12:21;;;;;;;2.95;1.50;;;18.10;99.90;;;;;;5018933;28;20052;-57
2023/07/11 03:14:50;;;;;;;7.03;2.22;;;18.10;99.90;;;;;;5025382;28;20045;-57
2023/07/11 03:17:16;;;;;;;7.55;2.47;;;18.00;99.90;;;;;;5023725;28;20120;-57
2023/07/11 03:19:42;;;;;;;5.03;1.52;;;18.00;99.90;;;;;;5017378;28;20518;-58
2023/07/11 03:22:08;;;;;;;3.83;1.80;;;18.00;99.90;;;;;;5022700;28;20033;-57
2023/07/11 03:24:33;;;;;;;3.40;1.40;;;18.00;99.90;;;;;;5023996;28;20057;-57
2023/07/11 03:26:59;;;;;;;5.72;1.60;;;18.00;99.90;;;;;;5007991;28;20060;-57
2023/07/11 03:29:25;;;;;;;5.68;1.80;;;18.00;99.90;;;;;;5019130;28;20382;-57
2023/07/11 03:31:51;;;;;;;4.80;2.00;;;18.00;99.90;;;;;;5040249;28;20071;-57
2023/07/11 03:34:16;;;;;;;6.03;1.90;;;18.00;99.90;;;;;;5026796;28;20081;-56
2023/07/11 03:36:42;;;;;;;10.30;2.65;;;18.00;99.90;;;;;;5023049;28;20096;-57
2023/07/11 03:39:08;;;;;;;5.35;1.90;;;18.00;99.90;;;;;;5020261;28;20052;-58
2023/07/11 03:41:34;;;;;;;3.53;1.70;;;18.00;99.90;;;;;;5015096;28;20041;-58
2023/07/11 03:44:00;;;;;;;5.82;1.85;;;18.00;99.90;;;;;;5024911;28;20049;-58
2023/07/11 03:46:26;;;;;;;4.35;1.77;;;18.00;99.90;;;;;;5027167;28;20045;-57
2023/07/11 03:48:58;;;;;;;3.97;1.92;;;18.00;99.90;;;;;;5021782;28;20037;-58
2023/07/11 03:51:24;;;;;;;4.22;1.73;;;17.90;99.90;;;;;;5021612;28;20046;-59
2023/07/11 03:53:49;;;;;;;8.27;2.00;;;17.90;99.90;;;;;;5019453;28;20060;-58
2023/07/11 03:56:15;;;;;;;5.60;2.22;;;17.90;99.90;;;;;;5019373;28;20052;-57
2023/07/11 03:58:41;;;;;;;4.47;2.10;;;17.90;99.90;;;;;;5020440;28;20575;-58
2023/07/11 04:01:06;;;;;;;4.05;1.80;;;17.80;99.90;;;;;;5024387;28;20034;-59
2023/07/11 04:03:32;;;;;;;4.97;2.38;;;17.90;99.90;;;;;;5039895;28;20293;-58
2023/07/11 04:36:14;;;;;;;7.35;2.90;;;18.00;99.90;;;;;;5029697;28;20156;-59
2023/07/11 04:38:40;;;;;;;7.30;3.25;;;18.00;99.90;;;;;;5026496;28;20053;-59
2023/07/11 04:41:07;;;;;;;6.32;3.53;;;18.00;99.90;;;;;;5021948;28;20038;-59
2023/07/11 04:43:36;;;;;;;9.90;3.85;;;18.00;99.90;;;;;;5027185;28;20084;-59
2023/07/11 04:46:03;;;;;;;8.00;3.70;;;18.00;99.90;;;;;;5009466;28;20045;-59
2023/07/11 04:48:29;;;;;;;7.32;3.35;;;18.10;99.90;;;;;;5020440;28;20126;-59
2023/07/11 04:51:00;;;;;;;5.68;3.67;;;18.10;99.90;;;;;;5012586;28;20052;-59
2023/07/11 04:53:27;;;;;;;9.48;4.03;;;18.10;99.90;;;;;;4999247;28;20503;-59
2023/07/11 04:55:57;;;;;;;7.43;3.88;;;18.20;99.90;;;;;;5027334;28;20043;-59
2023/07/11 04:58:24;;;;;;;10.15;3.97;;;18.20;99.90;;;;;;5009259;28;20397;-59
2023/07/11 05:31:01;;;;;;;10.02;4.57;;;19.00;99.90;;;;;;5021501;28;20369;-59
2023/07/11 05:33:27;;;;;;;8.95;4.55;;;19.10;99.90;;;;;;5006827;28;20081;-59
2023/07/11 05:39:12;;;;;;;8.95;4.80;;;19.20;99.90;;;;;;4900661;29;20048;-59
2023/07/11 05:41:44;;;;;;;9.32;5.10;;;19.20;99.90;;;;;;4928587;29;20182;-59
2023/07/11 06:14:17;;;;;;;9.93;5.10;;;19.70;99.90;;;;;;5028067;28;20036;-58
2023/07/11 06:16:44;;;;;;;7.15;4.53;;;19.90;99.90;;;;;;5012351;28;20246;-59
2023/07/11 06:19:10;;;;;;;7.93;4.40;;;20.10;99.90;;;;;;5011142;28;20045;-59
2023/07/11 06:21:36;;;;;;;10.30;5.25;;;20.20;99.90;;;;;;5012277;28;20053;-59
2023/07/11 06:24:01;;;;;;;12.18;6.20;;;20.30;99.90;;;;;;5027856;28;20060;-59
2023/07/11 06:26:27;;;;;;;12.73;5.32;;;20.40;99.90;;;;;;5017361;28;20507;-59
2023/07/11 06:28:53;;;;;;;8.30;5.88;;;20.50;99.90;;;;;;5014804;28;20037;-59
2023/07/11 06:31:19;;;;;;;7.78;5.43;;;20.70;99.90;;;;;;5025943;28;20056;-60
2023/07/11 06:33:45;;;;;;;11.00;6.10;;;20.50;99.90;;;;;;5023747;28;20051;-59
2023/07/11 06:36:12;;;;;;;10.25;5.93;;;20.50;99.90;;;;;;5007089;28;20033;-59
2023/07/11 06:38:37;;;;;;;8.90;6.07;;;20.50;99.90;;;;;;5013322;28;20180;-59
2023/07/11 06:41:03;;;;;;;7.65;6.00;;;20.50;99.90;;;;;;5014944;28;20540;-59
2023/07/11 06:43:29;;;;;;;7.85;6.22;;;20.60;99.90;;;;;;5030189;28;20204;-59
2023/07/11 06:45:57;;;;;;;9.68;6.00;;;20.60;99.90;;;;;;5028541;28;20080;-59
2023/07/11 06:48:26;;;;;;;13.05;6.82;;;20.60;99.90;;;;;;4998636;28;20056;-59
2023/07/11 06:50:57;;;;;;;9.63;6.18;;;20.70;99.90;;;;;;5005104;28;20037;-59
2023/07/11 06:53:26;;;;;;;10.27;6.43;;;20.70;99.90;;;;;;5008402;28;20038;-59
2023/07/11 06:55:53;;;;;;;13.63;7.20;;;20.80;99.90;;;;;;5020961;28;20481;-59
2023/07/11 06:58:19;;;;;;;11.00;6.93;;;21.00;99.90;;;;;;4997951;28;20100;-59
2023/07/11 07:00:52;;;;;;;11.77;6.55;;;21.10;99.90;;;;;;4997450;28;20045;-59
2023/07/11 07:03:18;;;;;;;8.07;6.27;;;21.10;99.90;;;;;;5006476;28;20061;-59
2023/07/11 07:05:56;;;;;;;10.75;6.75;;;21.10;99.90;;;;;;5015661;28;20350;-58
2023/07/11 07:08:23;;;;;;;9.88;6.03;;;21.20;99.90;;;;;;5012339;28;20489;-59
2023/07/11 07:10:50;;;;;;;8.27;6.25;;;21.20;99.90;;;;;;5030207;28;20034;-59
2023/07/11 07:13:17;;;;;;;10.65;6.72;;;21.30;99.90;;;;;;5014262;28;20038;-60
2023/07/11 07:15:50;;;;;;;10.98;6.07;;;21.30;99.90;;;;;;5005175;28;20038;-61
2023/07/11 07:18:16;;;;;;;11.32;6.75;;;21.40;99.90;;;;;;5018567;28;20037;-60
2023/07/11 07:20:44;;;;;;;15.88;7.13;;;21.50;99.90;;;;;;5017059;28;20077;-60
2023/07/11 07:23:09;;;;;;;13.02;6.28;;;21.60;99.90;;;;;;5001357;28;20038;-60
2023/07/11 07:25:36;;;;;;;10.90;5.88;;;21.60;99.90;;;;;;5020808;28;20038;-59
2023/07/11 07:28:03;;;;;;;13.02;6.88;;;21.70;99.90;;;;;;4993145;28;20073;-60
2023/07/11 07:30:29;;;;;;;12.05;6.35;;;21.70;99.90;;;;;;5019662;28;20113;-60
2023/07/11 07:32:54;;;;;;;9.55;5.78;;;21.80;99.90;;;;;;5032576;28;20124;-60
2023/07/11 07:35:20;;;;;;;10.23;6.05;;;21.90;99.90;;;;;;5007351;28;20407;-60
2023/07/11 07:37:46;;;;;;;9.80;6.25;;;21.90;99.90;;;;;;5011016;28;20057;-60
2023/07/11 07:40:12;;;;;;;10.73;5.82;;;21.90;99.90;;;;;;5010177;28;20051;-60
2023/07/11 07:42:38;;;;;;;9.55;5.57;;;21.90;99.90;;;;;;5016332;28;20034;-60
2023/07/11 07:45:04;;;;;;;8.20;5.60;;;22.00;99.90;;;;;;5017669;28;20112;-60
2023/07/11 07:47:30;;;;;;;8.20;5.88;;;22.10;99.90;;;;;;5010692;28;20277;-60
2023/07/11 07:49:56;;;;;;;9.82;6.50;;;22.20;99.90;;;;;;5024983;28;20205;-60
2023/07/11 07:52:22;;;;;;;10.50;6.43;;;22.30;99.90;;;;;;5008699;28;20068;-60
2023/07/11 07:54:47;;;;;;;10.15;6.05;;;22.40;99.90;;;;;;5029408;28;20041;-60
2023/07/11 07:57:13;;;;;;;8.85;5.70;;;22.40;99.90;;;;;;5010686;28;20080;-60
2023/07/11 07:59:39;;;;;;;12.50;5.70;;;22.50;99.90;;;;;;5003196;28;20037;-60
2023/07/11 08:02:05;;;;;;;11.18;5.47;;;22.60;99.90;;;;;;5011763;28;20044;-60
2023/07/11 08:04:31;;;;;;;8.43;5.20;;;22.80;99.90;;;;;;4999870;28;20054;-59
2023/07/11 08:06:57;;;;;;;8.93;5.68;;;23.00;99.90;;;;;;5009912;28;20492;-60
2023/07/11 08:09:25;;;;;;;8.23;4.80;;;23.10;99.90;;;;;;5020933;28;20045;-60
2023/07/11 08:11:51;;;;;;;9.43;5.07;;;23.20;99.90;;;;;;5027812;28;20111;-60
2023/07/11 08:14:16;;;;;;;9.73;4.80;;;23.20;99.90;;;;;;4999079;28;20509;-60
2023/07/11 08:16:42;;;;;;;7.47;4.53;;;23.20;99.90;;;;;;5020836;28;20037;-60
2023/07/11 08:19:08;;;;;;;9.07;4.75;;;23.30;99.90;;;;;;5011282;28;20319;-60
2023/07/11 08:21:35;;;;;;;7.20;4.22;;;23.30;99.90;;;;;;5025102;28;20044;-60
2023/07/11 08:24:01;;;;;;;8.93;4.35;;;23.40;99.90;;;;;;5004119;28;20038;-60
2023/07/11 08:26:27;;;;;;;6.95;4.10;;;23.60;99.90;;;;;;5011740;28;20053;-60
2023/07/11 08:28:54;;;;;;;9.52;4.80;;;23.80;99.90;;;;;;5008413;28;20037;-60
2023/07/11 08:31:20;;;;;;;7.53;3.60;;;24.00;99.90;;;;;;5034939;28;20459;-60
2023/07/11 08:33:46;;;;;;;11.25;4.60;;;24.20;99.90;;;;;;5012988;28;20359;-60
2023/07/11 08:36:12;;;;;;;6.82;3.92;;;24.30;99.70;;;;;;5008858;28;20665;-60
2023/07/11 08:38:38;;;;;;;7.47;3.95;;;24.50;99.60;;;;;;5005595;28;20420;-60
2023/07/11 08:41:42;;;;;;;6.43;3.63;;;24.60;99.30;;;;;;5007688;28;20072;-60
2023/07/11 08:44:24;;;;;;;5.72;3.42;;;24.70;98.70;;;;;;5009193;28;20049;-60
2023/07/11 08:47:13;;;;;;;5.05;3.20;;;24.80;98.60;;;;;;5020484;28;20096;-60
2023/07/11 08:49:50;;;;;;;5.50;3.63;;;24.80;98.10;;;;;;4994900;28;20064;-60
2023/07/11 08:52:24;;;;;;;6.43;3.80;;;24.80;97.70;;;;;;5007547;28;20037;-60
2023/07/11 08:55:19;;;;;;;6.47;3.58;;;24.90;97.90;;;;;;5009096;28;20056;-60
2023/07/11 08:57:52;;;;;;;8.30;3.10;;;25.00;97.90;;;;;;4998091;28;20053;-60
2023/07/11 09:00:19;;;;;;;7.07;3.20;;;25.10;98.10;;;;;;4989729;28;20053;-60
2023/07/11 09:03:03;;;;;;;8.25;3.30;;;25.30;97.90;;;;;;5005256;28;20073;-60
2023/07/11 09:05:41;;;;;;;6.50;3.03;;;25.30;97.40;;;;;;5002545;28;20041;-60
2023/07/11 09:08:18;;;;;;;6.65;3.17;;;25.30;97.00;;;;;;5000398;28;20073;-60
2023/07/11 09:11:11;;;;;;;6.60;3.33;;;25.30;96.90;;;;;;5002907;28;20471;-60
2023/07/11 09:14:25;;;;;;;5.03;2.67;;;25.40;97.20;;;;;;5008978;28;20048;-60
2023/07/11 09:17:01;;;;;;;5.65;2.58;;;25.50;96.50;;;;;;4955635;28;20051;-60
2023/07/11 09:22:10;;;;;;;6.90;2.92;;;25.70;96.10;;;;;;5026984;28;20057;-62
2023/07/11 09:24:51;;;;;;;6.90;3.08;;;25.80;95.70;;;;;;5026947;28;20041;-63
2023/07/11 09:27:25;;;;;;;5.47;3.15;;;25.90;95.70;;;;;;5014011;28;20053;-63
2023/07/11 09:29:53;;;;;;;7.45;3.55;;;26.00;95.80;;;;;;5010389;28;20077;-63
2023/07/11 09:32:20;;;;;;;11.15;3.00;;;26.00;95.50;;;;;;5010680;28;20045;-63
2023/07/11 09:34:48;;;;;;;5.13;2.50;;;26.10;95.50;;;;;;5026421;28;20037;-63
2023/07/11 09:37:27;;;;;;;7.38;3.00;;;26.20;95.10;;;;;;5010079;28;20026;-61
2023/07/11 09:40:13;;;;;;;9.25;2.75;;;26.30;94.20;;;;;;4990386;28;20041;-63
2023/07/11 09:42:45;;;;;;;7.32;2.72;;;26.40;94.40;;;;;;5028472;28;20099;-63
2023/07/11 09:45:17;;;;;;;7.50;2.92;;;26.60;94.00;;;;;;5010191;28;20042;-63
2023/07/11 09:47:50;;;;;;;6.32;2.50;;;26.60;93.70;;;;;;5008722;28;20041;-62
2023/07/11 09:50:44;;;;;;;5.72;2.35;;;26.60;93.40;;;;;;5006354;28;20054;-62
2023/07/11 09:53:14;;;;;;;7.13;2.47;;;26.70;93.00;;;;;;5007150;28;20678;-63
2023/07/11 09:55:40;;;;;;;5.05;2.08;;;26.70;93.40;;;;;;5027979;28;20048;-63
2023/07/11 09:58:15;;;;;;;4.95;2.28;;;26.60;93.10;;;;;;5012038;28;20091;-63
2023/07/11 10:00:52;;;;;;;11.60;2.80;;;26.50;93.00;;;;;;5025182;28;20056;-62
2023/07/11 10:03:21;;;;;;;8.75;2.67;;;26.40;93.40;;;;;;5010428;28;20108;-63
2023/07/11 10:05:49;;;;;;;5.95;2.67;;;26.50;93.90;;;;;;5016543;28;20048;-63
2023/07/11 10:08:25;;;;;;;7.95;2.70;;;26.50;93.90;;;;;;5032181;28;20107;-63
2023/07/11 10:10:53;;;;;;;5.38;2.65;;;26.40;94.00;;;;;;5022739;28;20105;-63
2023/07/11 10:13:20;;;;;;;7.05;3.17;;;26.30;94.10;;;;;;5008254;28;20037;-63
2023/07/11 10:15:53;;;;;;;7.88;2.80;;;26.20;94.00;;;;;;5008922;28;20497;-62
2023/07/11 10:18:23;;;;;;;9.30;3.13;;;26.10;93.90;;;;;;5008220;28;20079;-62
2023/07/11 10:20:57;;;;;;;5.50;2.63;;;26.00;94.00;;;;;;5026528;28;20033;-63
2023/07/11 10:23:25;;;;;;;7.85;3.00;;;25.90;93.90;;;;;;5030862;28;20056;-63
2023/07/11 10:26:06;;;;;;;7.25;3.25;;;25.90;94.00;;;;;;5031699;28;20041;-62
2023/07/11 10:28:36;;;;;;;8.80;3.15;;;25.90;94.10;;;;;;4988947;28;20044;-63
2023/07/11 10:31:13;;;;;;;8.82;3.05;;;25.90;93.70;;;;;;5000050;28;20042;-63
2023/07/11 10:33:54;;;;;;;7.55;3.47;;;25.90;93.80;;;;;;5031122;28;20068;-62
2023/07/11 10:36:24;;;;;;;5.25;2.70;;;26.00;94.20;;;;;;5026719;28;20084;-63
2023/07/11 10:38:54;;;;;;;7.40;2.97;;;26.10;94.40;;;;;;5011747;28;20056;-63
2023/07/11 10:41:25;;;;;;;8.35;3.25;;;26.30;94.50;;;;;;5013545;28;20048;-63
2023/07/11 10:43:52;;;;;;;6.28;3.00;;;26.40;93.90;;;;;;5037133;28;20260;-62
2023/07/11 10:46:42;;;;;;;6.47;2.83;;;26.40;93.60;;;;;;5030352;28;20051;-63
2023/07/11 10:49:35;;;;;;;10.25;3.35;;;26.50;94.00;;;;;;5018240;28;20100;-62
2023/07/11 10:52:04;;;;;;;8.93;3.30;;;26.70;94.00;;;;;;5038984;28;20108;-63
2023/07/11 10:55:12;;;;;;;10.73;3.70;;;26.80;93.50;;;;;;5034879;28;20495;-63
2023/07/11 10:57:50;;;;;;;14.13;3.72;;;26.90;93.00;;;;;;5019326;28;20053;-62
2023/07/11 11:00:22;;;;;;;9.65;4.20;;;27.00;93.30;;;;;;5013460;28;20041;-63
2023/07/11 11:02:58;;;;;;;8.20;3.75;;;27.10;93.20;;;;;;5012465;28;20036;-62
2023/07/11 11:05:45;;;;;;;6.82;3.50;;;27.30;92.30;;;;;;5029717;28;20052;-63
2023/07/11 11:08:29;;;;;;;9.00;3.65;;;27.20;92.10;;;;;;5033462;28;20257;-63
2023/07/11 11:11:06;;;;;;;8.32;3.65;;;27.20;92.80;;;;;;5027291;28;20117;-62
2023/07/11 11:13:32;;;;;;;10.32;4.22;;;27.10;92.90;;;;;;5033241;28;20481;-62
2023/07/11 11:16:07;;;;;;;7.53;3.70;;;27.10;92.50;;;;;;5030505;28;20121;-62
2023/07/11 11:18:54;;;;;;;9.05;4.28;;;26.90;92.50;;;;;;5025483;28;20073;-63
2023/07/11 11:21:42;;;;;;;11.20;5.15;;;26.90;92.60;;;;;;5007410;28;20068;-63
2023/07/11 11:24:29;;;;;;;12.88;3.75;;;26.90;92.60;;;;;;5004776;28;20137;-63
2023/07/11 11:27:21;;;;;;;8.40;3.83;;;26.90;92.60;;;;;;5026672;28;20371;-63
2023/07/11 11:30:17;;;;;;;7.88;3.92;;;26.70;92.80;;;;;;4999041;28;20063;-63
2023/07/11 11:33:09;;;;;;;10.27;3.75;;;26.50;92.40;;;;;;5015238;28;20059;-63
2023/07/11 11:35:54;;;;;;;8.55;4.63;;;26.30;92.40;;;;;;5007844;28;20046;-63
2023/07/11 11:38:25;;;;;;;7.32;3.50;;;26.30;92.90;;;;;;5006660;28;20045;-63
2023/07/11 11:40:58;;;;;;;10.02;3.30;;;26.30;93.10;;;;;;5008642;28;20457;-63
2023/07/11 11:43:24;;;;;;;;;;;26.50;93.40;;;;;;5008942;28;20441;-61
2023/07/11 11:45:51;;;;;;;6.65;3.20;;;26.60;93.50;;;;;;5011666;28;19917;-62
2023/07/11 11:48:20;;;;;;;6.72;2.80;;;26.60;93.00;;;;;;5016567;28;20072;-63
2023/07/11 11:50:47;;;;;;;6.63;3.22;;;26.60;92.50;;;;;;5013213;28;20618;-63
2023/07/11 11:53:35;;;;;;;6.50;3.00;;;26.60;92.30;;;;;;4997790;28;20041;-62
2023/07/11 11:56:05;;;;;;;7.80;3.50;;;26.70;92.20;;;;;;5010434;28;20421;-63
2023/07/11 11:58:33;;;;;;;7.03;2.80;;;26.60;92.00;;;;;;4997250;28;20077;-63
2023/07/11 12:00:59;;;;;;;9.60;3.72;;;26.70;91.50;;;;;;5020860;28;20036;-63
2023/07/11 12:03:34;;;;;;;6.25;2.60;;;26.80;91.90;;;;;;5019391;28;20080;-63
2023/07/11 12:06:03;;;;;;;5.72;2.60;;;26.80;91.50;;;;;;4997957;28;20048;-63
2023/07/11 12:08:37;;;;;;;7.13;2.60;;;26.90;91.60;;;;;;5030878;28;20120;-63
2023/07/11 12:11:09;;;;;;;9.13;2.70;;;26.90;91.90;;;;;;4990518;28;20433;-63
2023/07/11 12:13:44;;;;;;;4.95;2.67;;;27.10;91.20;;;;;;5033088;28;20172;-63
2023/07/11 12:16:22;;;;;;;6.38;2.55;;;27.10;91.20;;;;;;5010738;28;20043;-63
2023/07/11 12:18:56;;;;;;;5.65;2.72;;;27.00;91.10;;;;;;5035589;28;20120;-63
2023/07/11 12:21:38;;;;;;;8.07;3.25;;;26.90;91.10;;;;;;5011531;28;20041;-63
2023/07/11 12:24:25;;;;;;;7.13;2.72;;;27.00;91.60;;;;;;5034873;28;20041;-63
2023/07/11 12:26:52;;;;;;;5.57;2.80;;;26.90;91.40;;;;;;5007701;28;20040;-63
2023/07/11 12:29:36;;;;;;;6.18;2.60;;;26.80;91.70;;;;;;5020742;28;20037;-63
2023/07/11 12:32:30;;;;;;;5.57;2.85;;;26.90;91.60;;;;;;5004326;28;20128;-63
2023/07/11 12:35:16;;;;;;;;;;;26.90;91.50;;;;;;5004650;28;20037;-63
2023/07/11 12:37:58;;;;;;;6.13;2.65;;;26.70;91.20;;;;;;5004848;28;20403;-63
2023/07/11 12:40:40;;;;;;;9.23;2.38;;;26.60;91.90;;;;;;5032338;28;20044;-63
2023/07/11 12:43:28;;;;;;;8.35;2.42;;;26.60;91.80;;;;;;5005991;28;20071;-62
2023/07/11 12:46:17;;;;;;;5.15;1.70;;;26.70;92.10;;;;;;5023313;28;20048;-63
2023/07/11 12:48:49;;;;;;;4.13;1.88;;;27.00;90.90;;;;;;5032505;28;20049;-63
2023/07/11 12:51:25;;;;;;;4.10;1.90;;;27.30;91.20;;;;;;5001784;28;20037;-63
2023/07/11 12:54:09;;;;;;;6.57;1.88;;;27.50;91.10;;;;;;5010700;28;20103;-62
2023/07/11 12:56:35;;;;;;;6.88;1.77;;;27.30;90.20;;;;;;5027694;28;20437;-62
2023/07/11 12:59:01;;;;;;;7.72;2.08;;;27.30;90.80;;;;;;5008145;28;20044;-63
2023/07/11 13:01:31;;;;;;;5.22;1.50;;;27.20;91.10;;;;;;5034297;28;20033;-63
2023/07/11 13:03:57;;;;;;;2.28;1.42;;;27.20;91.40;;;;;;5036869;28;20408;-63
2023/07/11 13:06:32;;;;;;;4.28;1.25;;;27.20;91.60;;;;;;5014751;28;20041;-62
2023/07/11 13:08:58;;;;;;;3.17;1.20;;;27.30;92.40;;;;;;5030308;28;20113;-62
2023/07/11 13:11:28;;;;;;;5.00;1.17;;;27.40;92.70;;;;;;5008121;28;20483;-63
2023/07/11 13:13:55;;;;;;;3.00;1.27;;;26.80;93.30;;;;;;5022259;28;20142;-62
2023/07/11 13:16:34;;;;;;;2.50;1.13;;;26.90;93.60;;;;;;4998731;28;20515;-63
2023/07/11 13:19:01;;;;;;;2.83;1.10;;;27.00;93.40;;;;;;5026899;28;20041;-63
2023/07/11 13:21:27;;;;;;;3.20;1.20;;;27.30;93.80;;;;;;4990334;28;20048;-63
2023/07/11 13:23:53;;;;;;;4.78;1.35;;;27.20;93.70;;;;;;5012910;28;20056;-63
2023/07/11 13:26:26;;;;;;;2.83;1.40;;;27.10;93.40;;;;;;5018028;28;20403;-63
2023/07/11 13:29:06;;;;;;;3.28;1.35;;;27.30;93.70;;;;;;5013247;28;20113;-64
2023/07/11 13:31:33;;;;;;;4.45;1.40;;;27.40;93.70;;;;;;5018930;28;20050;-64
2023/07/11 13:34:10;;;;;;;4.68;1.88;;;27.00;93.40;;;;;;5015274;28;20064;-64
2023/07/11 13:36:36;;;;;;;3.97;1.20;;;27.00;93.80;;;;;;5027734;28;20544;-64
2023/07/11 13:39:06;;;;;;;4.82;1.45;;;27.10;94.00;;;;;;5007182;28;20077;-64
2023/07/11 13:41:37;;;;;;;7.00;1.58;;;27.20;94.00;;;;;;4991288;28;20038;-64
2023/07/11 13:44:15;;;;;;;4.25;1.63;;;27.40;94.10;;;;;;5009356;28;20550;-64
2023/07/11 13:46:41;;;;;;;4.55;1.65;;;27.50;93.50;;;;;;5026813;28;20038;-64
2023/07/11 13:49:21;;;;;;;4.85;1.63;;;27.10;93.70;;;;;;5027603;28;20041;-64
2023/07/11 13:51:48;;;;;;;5.82;1.52;;;27.00;94.30;;;;;;4992757;28;20045;-64
2023/07/11 13:54:20;;;;;;;4.07;1.90;;;27.70;94.50;;;;;;5026509;28;20132;-64
2023/07/11 13:56:47;;;;;;;5.53;1.65;;;27.40;93.40;;;;;;5029871;28;20064;-64
2023/07/11 13:59:14;;;;;;;5.15;1.60;;;27.50;93.70;;;;;;5026538;28;20177;-64
2023/07/11 14:01:41;;;;;;;6.72;2.00;;;27.70;94.00;;;;;;5018283;28;20042;-64
2023/07/11 14:04:21;;;;;;;8.88;2.72;;;27.80;93.80;;;;;;4996323;28;20033;-64
2023/07/11 14:06:47;;;;;;;3.85;1.33;;;27.60;93.90;;;;;;5024395;28;20036;-65
2023/07/11 14:09:13;;;;;;;4.05;1.50;;;27.40;93.60;;;;;;5029851;28;20042;-64
2023/07/11 14:11:45;;;;;;;3.92;1.92;;;27.50;93.60;;;;;;5012172;28;20400;-64
2023/07/11 14:14:13;;;;;;;3.92;1.52;;;27.50;93.40;;;;;;5022736;28;20405;-64
2023/07/11 14:16:40;;;;;;;6.78;1.75;;;27.20;93.10;;;;;;5029958;28;20041;-64
2023/07/11 14:19:23;;;;;;;8.00;2.08;;;27.00;93.70;;;;;;5008892;28;20029;-64
2023/07/11 14:21:49;;;;;;;6.22;2.10;;;26.90;94.00;;;;;;5005347;28;20038;-64
2023/07/11 14:24:15;;;;;;;6.10;1.90;;;26.90;94.00;;;;;;5019206;28;20052;-64
2023/07/11 14:26:41;;;;;;;4.70;1.40;;;26.80;94.10;;;;;;5030983;28;20037;-64
2023/07/11 14:29:27;;;;;;;4.82;1.70;;;26.40;94.40;;;;;;4999356;28;20488;-65
2023/07/11 14:31:54;;;;;;;4.82;1.80;;;26.30;94.50;;;;;;5023233;28;20064;-64
2023/07/11 14:34:23;;;;;;;6.03;1.95;;;26.40;94.90;;;;;;5031092;28;20049;-64
2023/07/11 14:36:49;;;;;;;4.05;1.60;;;26.30;94.60;;;;;;5029194;28;20052;-64
2023/07/11 14:39:15;;;;;;;6.30;1.83;;;26.00;95.00;;;;;;5012764;28;20043;-64
2023/07/11 14:41:42;;;;;;;3.67;1.45;;;25.90;95.00;;;;;;4991991;28;20405;-64
2023/07/11 14:44:29;;;;;;;5.00;1.60;;;25.60;95.00;;;;;;5011024;28;20116;-65
2023/07/11 14:46:55;;;;;;;3.58;1.60;;;25.90;95.30;;;;;;5010945;28;20511;-64